| Temperature (°F) | Max | Average | Min |
|---|---|---|---|
| Max Temperature | 102 | 95.23 | 84 |
| Avg Temperature | 90.43 | 83.91 | 74.19 |
| Min Temperature | 82 | 75 | 68 |
| Dew Point (°F) | Max | Average | Min |
|---|---|---|---|
| Dew Point | 81 | 69.56 | 54 |
| Precipitation (in) | Max | Average | Min | Sum |
|---|---|---|---|---|
| Precipitation | 0.00 | 0.00 | 0.00 | 0.00 |
| Snowdepth | 0.00 | 0.00 | 0.00 | 0.00 |
| Wind (mph) | Max | Average | Min |
|---|---|---|---|
| Wind | 58 | 6.03 | 0 |
| Gust Wind | 51 | 0.46 | 0 |
| Sea Level Pressure (in) | Max | Average | Min |
|---|---|---|---|
| Sea Level Pressure | 27.02 | 26.86 | 26.7 |
| Date | Temperature (°F) | Dew Point (°F) | Humidity (%) | Wind Speed (mph) | Pressure (in) | Precipitation (in) | ||||||||||
|---|---|---|---|---|---|---|---|---|---|---|---|---|---|---|---|---|
| Max | Avg | Min | Max | Avg | Min | Max | Avg | Min | Max | Avg | Min | Max | Avg | Min | ||
| 4/30/2015 | 97 | 80.4 | 72 | 77 | 72.5 | 66 | 100 | 80.3 | 39 | 28 | 11.0 | 2 | 26.9 | 26.9 | 26.8 | 0.00 |
| 4/29/2015 | 99 | 84.5 | 77 | 77 | 71.4 | 63 | 89 | 67.5 | 37 | 20 | 7.2 | 1 | 26.9 | 26.9 | 26.8 | 0.00 |
| 4/28/2015 | 99 | 85.8 | 75 | 79 | 71.9 | 54 | 100 | 67.7 | 26 | 17 | 4.8 | 0 | 26.9 | 26.9 | 26.8 | 0.00 |
| 4/27/2015 | 95 | 85.2 | 75 | 77 | 71.5 | 63 | 100 | 67.9 | 34 | 12 | 5.4 | 0 | 26.9 | 26.9 | 26.8 | 0.00 |
| 4/26/2015 | 95 | 83.6 | 75 | 77 | 70.4 | 59 | 100 | 68.0 | 34 | 16 | 4.6 | 0 | 26.9 | 26.9 | 26.8 | 0.00 |
| 4/25/2015 | 97 | 81.7 | 73 | 77 | 72.5 | 61 | 100 | 77.4 | 30 | 18 | 6.0 | 0 | 26.9 | 26.9 | 26.8 | 0.00 |
| 4/24/2015 | 97 | 86.0 | 77 | 77 | 68.4 | 57 | 100 | 60.7 | 27 | 12 | 5.3 | 1 | 26.9 | 26.9 | 26.8 | 0.00 |
| 4/23/2015 | 97 | 84.6 | 77 | 79 | 74.2 | 66 | 100 | 73.8 | 37 | 16 | 6.3 | 0 | 26.9 | 26.9 | 26.8 | 0.00 |
| 4/22/2015 | 97 | 84.1 | 77 | 81 | 75.0 | 66 | 100 | 77.6 | 41 | 20 | 5.6 | 0 | 26.9 | 26.9 | 26.8 | 0.00 |
| 4/21/2015 | 97 | 84.7 | 77 | 79 | 74.0 | 68 | 100 | 73.2 | 39 | 20 | 5.6 | 0 | 26.9 | 26.9 | 26.8 | 0.00 |
| 4/20/2015 | 95 | 85.2 | 75 | 77 | 71.4 | 64 | 100 | 67.2 | 36 | 10 | 4.9 | 0 | 26.9 | 26.9 | 26.8 | 0.00 |
| 4/19/2015 | 97 | 85.4 | 73 | 79 | 68.5 | 57 | 100 | 63.4 | 27 | 12 | 5.5 | 0 | 26.9 | 26.8 | 26.8 | 0.00 |
| 4/18/2015 | 93 | 83.0 | 73 | 77 | 70.9 | 63 | 100 | 71.8 | 36 | 10 | 4.8 | 0 | 26.9 | 26.8 | 26.8 | 0.00 |
| 4/17/2015 | 91 | 79.8 | 68 | 77 | 72.4 | 63 | 100 | 80.3 | 46 | 22 | 7.3 | 2 | 27.0 | 26.9 | 26.8 | 0.00 |
| 4/16/2015 | 90 | 79.6 | 70 | 75 | 66.5 | 57 | 83 | 66.8 | 37 | 8 | 4.5 | 0 | 27.0 | 26.9 | 26.8 | 0.00 |
| 4/15/2015 | 84 | 76.0 | 72 | 70 | 66.4 | 61 | 94 | 73.3 | 45 | 14 | 5.3 | 2 | 26.9 | 26.9 | 26.8 | 0.00 |
| 4/14/2015 | 88 | 75.9 | 68 | 72 | 65.3 | 61 | 89 | 71.7 | 43 | 12 | 4.4 | 2 | 26.9 | 26.9 | 26.8 | 0.00 |
| 4/13/2015 | 86 | 74.2 | 68 | 73 | 67.4 | 64 | 100 | 81.6 | 51 | 17 | 6.2 | 3 | 27.0 | 26.9 | 26.8 | 0.00 |
| 4/12/2015 | 86 | 76.4 | 72 | 73 | 69.6 | 66 | 100 | 80.2 | 51 | 12 | 6.6 | 2 | 27.0 | 26.9 | 26.9 | 0.00 |
| 4/11/2015 | 97 | 84.7 | 77 | 72 | 67.0 | 63 | 78 | 57.6 | 32 | 8 | 4.9 | 0 | 27.0 | 26.9 | 26.8 | 0.00 |
| 4/10/2015 | 93 | 83.1 | 73 | 72 | 66.7 | 59 | 89 | 59.8 | 36 | 12 | 6.1 | 2 | 26.9 | 26.9 | 26.8 | 0.00 |
| 4/9/2015 | 97 | 85.1 | 72 | 70 | 65.1 | 57 | 83 | 53.1 | 37 | 58 | 9.4 | 0 | 26.9 | 26.9 | 26.8 | 0.00 |
| 4/8/2015 | 97 | 88.1 | 79 | 81 | 70.3 | 61 | 100 | 60.6 | 30 | 12 | 7.2 | 0 | 26.9 | 26.8 | 26.8 | 0.00 |
| 4/7/2015 | 100 | 90.1 | 82 | 77 | 66.5 | 57 | 84 | 48.4 | 25 | 10 | 6.1 | 1 | 26.9 | 26.8 | 26.7 | 0.00 |
| 4/6/2015 | 102 | 89.6 | 81 | 81 | 69.0 | 57 | 100 | 56.1 | 25 | 10 | 6.1 | 0 | 26.9 | 26.8 | 26.7 | 0.00 |
| 4/5/2015 | 99 | 90.4 | 82 | 77 | 67.7 | 59 | 84 | 50.2 | 27 | 22 | 6.7 | 1 | 26.8 | 26.8 | 26.7 | 0.00 |
| 4/4/2015 | 99 | 88.3 | 75 | 75 | 66.3 | 55 | 94 | 54.1 | 24 | 12 | 4.2 | 0 | 26.8 | 26.8 | 26.7 | 0.00 |
| 4/3/2015 | 99 | 87.4 | 81 | 79 | 70.8 | 61 | 94 | 61.9 | 29 | 14 | 7.1 | 1 | 26.9 | 26.8 | 26.7 | 0.00 |
| 4/2/2015 | 97 | 87.9 | 77 | 79 | 67.0 | 55 | 100 | 56.1 | 25 | 12 | 5.5 | 1 | 26.9 | 26.9 | 26.8 | 0.00 |
| 4/1/2015 | 97 | 86.4 | 77 | 79 | 70.2 | 63 | 94 | 62.3 | 34 | 17 | 6.4 | 1 | 26.9 | 26.9 | 26.8 | 0.00 |